sensor_id;sensor_type;location;lat;lon;timestamp;P1;durP1;ratioP1;P2;durP2;ratioP2
16450;SDS011;12243;42.708;23.310;2023-02-11T00:01:05;21.30;;;11.80;;
16450;SDS011;12243;42.708;23.310;2023-02-11T00:03:33;21.37;;;11.67;;
16450;SDS011;12243;42.708;23.310;2023-02-11T00:06:01;20.17;;;12.07;;
16450;SDS011;12243;42.708;23.310;2023-02-11T00:08:31;16.83;;;10.97;;
16450;SDS011;12243;42.708;23.310;2023-02-11T00:10:57;21.67;;;11.63;;
16450;SDS011;12243;42.708;23.310;2023-02-11T00:13:24;20.70;;;11.43;;
16450;SDS011;12243;42.708;23.310;2023-02-11T00:15:51;20.40;;;11.17;;
16450;SDS011;12243;42.708;23.310;2023-02-11T00:18:18;19.40;;;11.27;;
16450;SDS011;12243;42.708;23.310;2023-02-11T00:20:45;20.53;;;10.37;;
16450;SDS011;12243;42.708;23.310;2023-02-11T00:23:12;22.97;;;11.23;;
16450;SDS011;12243;42.708;23.310;2023-02-11T00:25:42;20.37;;;10.53;;
16450;SDS011;12243;42.708;23.310;2023-02-11T00:28:10;18.43;;;10.60;;
16450;SDS011;12243;42.708;23.310;2023-02-11T00:30:39;21.73;;;10.90;;
16450;SDS011;12243;42.708;23.310;2023-02-11T00:33:06;20.20;;;10.70;;
16450;SDS011;12243;42.708;23.310;2023-02-11T00:35:35;17.47;;;10.60;;
16450;SDS011;12243;42.708;23.310;2023-02-11T00:38:02;20.60;;;11.60;;
16450;SDS011;12243;42.708;23.310;2023-02-11T00:40:30;20.57;;;10.60;;
16450;SDS011;12243;42.708;23.310;2023-02-11T00:42:58;18.90;;;10.77;;
16450;SDS011;12243;42.708;23.310;2023-02-11T00:45:25;18.57;;;10.67;;
16450;SDS011;12243;42.708;23.310;2023-02-11T00:47:53;23.50;;;11.90;;
16450;SDS011;12243;42.708;23.310;2023-02-11T00:50:20;19.73;;;10.03;;
16450;SDS011;12243;42.708;23.310;2023-02-11T00:52:47;18.20;;;11.00;;
16450;SDS011;12243;42.708;23.310;2023-02-11T00:55:14;21.33;;;9.97;;
16450;SDS011;12243;42.708;23.310;2023-02-11T00:57:41;17.53;;;10.70;;
16450;SDS011;12243;42.708;23.310;2023-02-11T01:00:10;21.00;;;11.07;;
16450;SDS011;12243;42.708;23.310;2023-02-11T01:02:39;19.57;;;9.47;;
16450;SDS011;12243;42.708;23.310;2023-02-11T01:05:08;19.47;;;10.53;;
16450;SDS011;12243;42.708;23.310;2023-02-11T01:07:35;18.93;;;10.13;;
16450;SDS011;12243;42.708;23.310;2023-02-11T01:10:02;17.13;;;10.63;;
16450;SDS011;12243;42.708;23.310;2023-02-11T01:12:29;15.77;;;9.00;;
16450;SDS011;12243;42.708;23.310;2023-02-11T01:14:56;17.33;;;9.37;;
16450;SDS011;12243;42.708;23.310;2023-02-11T01:17:25;18.13;;;9.57;;
16450;SDS011;12243;42.708;23.310;2023-02-11T01:19:51;18.67;;;9.70;;
16450;SDS011;12243;42.708;23.310;2023-02-11T01:22:19;16.17;;;10.70;;
16450;SDS011;12243;42.708;23.310;2023-02-11T01:24:46;14.23;;;8.33;;
16450;SDS011;12243;42.708;23.310;2023-02-11T01:27:13;21.27;;;10.40;;
16450;SDS011;12243;42.708;23.310;2023-02-11T01:29:40;19.47;;;10.47;;
16450;SDS011;12243;42.708;23.310;2023-02-11T01:32:07;21.37;;;10.37;;
16450;SDS011;12243;42.708;23.310;2023-02-11T01:34:35;18.73;;;10.70;;
16450;SDS011;12243;42.708;23.310;2023-02-11T01:37:01;19.27;;;10.37;;
16450;SDS011;12243;42.708;23.310;2023-02-11T01:39:31;22.37;;;10.97;;
16450;SDS011;12243;42.708;23.310;2023-02-11T01:41:58;18.70;;;10.20;;
16450;SDS011;12243;42.708;23.310;2023-02-11T01:44:26;15.87;;;9.40;;
16450;SDS011;12243;42.708;23.310;2023-02-11T01:46:55;19.67;;;9.47;;
16450;SDS011;12243;42.708;23.310;2023-02-11T01:49:24;25.87;;;11.27;;
16450;SDS011;12243;42.708;23.310;2023-02-11T01:51:55;19.43;;;10.73;;
16450;SDS011;12243;42.708;23.310;2023-02-11T01:54:27;19.73;;;10.67;;
16450;SDS011;12243;42.708;23.310;2023-02-11T01:57:14;21.30;;;11.03;;
16450;SDS011;12243;42.708;23.310;2023-02-11T01:59:55;20.37;;;10.80;;
16450;SDS011;12243;42.708;23.310;2023-02-11T02:02:39;20.67;;;11.13;;
16450;SDS011;12243;42.708;23.310;2023-02-11T02:05:16;18.50;;;10.13;;
16450;SDS011;12243;42.708;23.310;2023-02-11T02:07:55;20.40;;;10.70;;
16450;SDS011;12243;42.708;23.310;2023-02-11T02:10:28;20.23;;;11.40;;
16450;SDS011;12243;42.708;23.310;2023-02-11T02:12:56;18.33;;;10.77;;
16450;SDS011;12243;42.708;23.310;2023-02-11T02:15:24;17.63;;;11.20;;
16450;SDS011;12243;42.708;23.310;2023-02-11T02:18:04;22.40;;;11.70;;
16450;SDS011;12243;42.708;23.310;2023-02-11T02:20:49;17.67;;;10.23;;
16450;SDS011;12243;42.708;23.310;2023-02-11T02:23:41;22.37;;;12.20;;
16450;SDS011;12243;42.708;23.310;2023-02-11T02:26:34;17.47;;;9.60;;
16450;SDS011;12243;42.708;23.310;2023-02-11T02:32:28;21.23;;;10.93;;
16450;SDS011;12243;42.708;23.310;2023-02-11T02:35:14;19.77;;;10.67;;
16450;SDS011;12243;42.708;23.310;2023-02-11T02:37:55;20.57;;;12.00;;
16450;SDS011;12243;42.708;23.310;2023-02-11T02:40:30;21.33;;;11.63;;
16450;SDS011;12243;42.708;23.310;2023-02-11T02:43:00;20.40;;;11.23;;
16450;SDS011;12243;42.708;23.310;2023-02-11T02:45:29;21.57;;;10.60;;
16450;SDS011;12243;42.708;23.310;2023-02-11T02:47:57;18.03;;;9.97;;
16450;SDS011;12243;42.708;23.310;2023-02-11T02:50:25;18.33;;;11.70;;
16450;SDS011;12243;42.708;23.310;2023-02-11T02:52:58;22.00;;;11.30;;
16450;SDS011;12243;42.708;23.310;2023-02-11T02:55:44;21.10;;;11.03;;
16450;SDS011;12243;42.708;23.310;2023-02-11T02:58:24;20.33;;;10.93;;
16450;SDS011;12243;42.708;23.310;2023-02-11T03:01:06;24.27;;;12.43;;
16450;SDS011;12243;42.708;23.310;2023-02-11T03:03:40;21.73;;;10.73;;
16450;SDS011;12243;42.708;23.310;2023-02-11T03:06:14;21.93;;;11.50;;
16450;SDS011;12243;42.708;23.310;2023-02-11T03:08:48;22.57;;;12.07;;
16450;SDS011;12243;42.708;23.310;2023-02-11T03:11:19;20.70;;;11.13;;
16450;SDS011;12243;42.708;23.310;2023-02-11T03:13:47;22.83;;;11.73;;
16450;SDS011;12243;42.708;23.310;2023-02-11T03:16:17;18.43;;;10.77;;
16450;SDS011;12243;42.708;23.310;2023-02-11T03:18:49;22.20;;;12.37;;
16450;SDS011;12243;42.708;23.310;2023-02-11T03:21:20;22.03;;;11.70;;
16450;SDS011;12243;42.708;23.310;2023-02-11T03:23:50;28.73;;;14.13;;
16450;SDS011;12243;42.708;23.310;2023-02-11T03:26:21;22.33;;;11.97;;
16450;SDS011;12243;42.708;23.310;2023-02-11T03:28:52;23.93;;;11.83;;
16450;SDS011;12243;42.708;23.310;2023-02-11T03:31:27;25.30;;;12.93;;
16450;SDS011;12243;42.708;23.310;2023-02-11T03:34:01;25.40;;;13.40;;
16450;SDS011;12243;42.708;23.310;2023-02-11T03:36:35;28.90;;;13.90;;
16450;SDS011;12243;42.708;23.310;2023-02-11T03:39:10;27.43;;;14.03;;
16450;SDS011;12243;42.708;23.310;2023-02-11T03:41:39;24.60;;;13.03;;
16450;SDS011;12243;42.708;23.310;2023-02-11T03:44:07;21.80;;;13.43;;
16450;SDS011;12243;42.708;23.310;2023-02-11T03:46:36;29.97;;;14.13;;
16450;SDS011;12243;42.708;23.310;2023-02-11T03:49:10;34.90;;;14.43;;
16450;SDS011;12243;42.708;23.310;2023-02-11T03:51:40;29.67;;;14.67;;
16450;SDS011;12243;42.708;23.310;2023-02-11T03:54:08;23.47;;;13.23;;
16450;SDS011;12243;42.708;23.310;2023-02-11T03:56:40;31.17;;;13.23;;
16450;SDS011;12243;42.708;23.310;2023-02-11T03:59:12;23.23;;;11.10;;
16450;SDS011;12243;42.708;23.310;2023-02-11T04:01:39;21.83;;;11.77;;
16450;SDS011;12243;42.708;23.310;2023-02-11T04:04:06;25.83;;;12.20;;
16450;SDS011;12243;42.708;23.310;2023-02-11T04:06:34;21.13;;;11.77;;
16450;SDS011;12243;42.708;23.310;2023-02-11T04:09:01;23.23;;;12.97;;
16450;SDS011;12243;42.708;23.310;2023-02-11T04:11:28;24.07;;;12.80;;
16450;SDS011;12243;42.708;23.310;2023-02-11T04:13:54;25.03;;;12.53;;
16450;SDS011;12243;42.708;23.310;2023-02-11T04:16:21;23.77;;;12.30;;
16450;SDS011;12243;42.708;23.310;2023-02-11T04:18:48;23.27;;;12.47;;
16450;SDS011;12243;42.708;23.310;2023-02-11T04:21:15;23.20;;;11.63;;
16450;SDS011;12243;42.708;23.310;2023-02-11T04:23:43;23.60;;;12.43;;
16450;SDS011;12243;42.708;23.310;2023-02-11T04:26:10;24.37;;;13.07;;
16450;SDS011;12243;42.708;23.310;2023-02-11T04:28:37;24.90;;;14.10;;
16450;SDS011;12243;42.708;23.310;2023-02-11T04:31:04;29.43;;;14.70;;
16450;SDS011;12243;42.708;23.310;2023-02-11T04:33:31;29.30;;;13.80;;
16450;SDS011;12243;42.708;23.310;2023-02-11T04:35:57;24.87;;;12.97;;
16450;SDS011;12243;42.708;23.310;2023-02-11T04:38:24;28.00;;;13.80;;
16450;SDS011;12243;42.708;23.310;2023-02-11T04:40:53;22.77;;;13.17;;
16450;SDS011;12243;42.708;23.310;2023-02-11T04:43:19;23.67;;;13.07;;
16450;SDS011;12243;42.708;23.310;2023-02-11T04:45:46;24.03;;;13.77;;
16450;SDS011;12243;42.708;23.310;2023-02-11T04:48:13;24.23;;;12.47;;
16450;SDS011;12243;42.708;23.310;2023-02-11T04:50:40;23.80;;;13.67;;
16450;SDS011;12243;42.708;23.310;2023-02-11T04:53:07;25.10;;;12.80;;
16450;SDS011;12243;42.708;23.310;2023-02-11T04:55:33;27.23;;;13.97;;
16450;SDS011;12243;42.708;23.310;2023-02-11T04:58:02;25.33;;;13.93;;
16450;SDS011;12243;42.708;23.310;2023-02-11T05:00:28;23.93;;;13.43;;
16450;SDS011;12243;42.708;23.310;2023-02-11T05:02:55;28.37;;;15.00;;
16450;SDS011;12243;42.708;23.310;2023-02-11T05:05:22;32.00;;;15.63;;
16450;SDS011;12243;42.708;23.310;2023-02-11T05:07:49;26.83;;;15.47;;
16450;SDS011;12243;42.708;23.310;2023-02-11T05:10:16;26.47;;;15.37;;
16450;SDS011;12243;42.708;23.310;2023-02-11T05:12:43;27.20;;;15.17;;
16450;SDS011;12243;42.708;23.310;2023-02-11T05:15:11;32.30;;;15.13;;
16450;SDS011;12243;42.708;23.310;2023-02-11T05:17:38;29.37;;;14.83;;
16450;SDS011;12243;42.708;23.310;2023-02-11T05:20:05;25.87;;;14.13;;
16450;SDS011;12243;42.708;23.310;2023-02-11T05:22:32;26.07;;;14.00;;
16450;SDS011;12243;42.708;23.310;2023-02-11T05:24:59;26.13;;;13.23;;
16450;SDS011;12243;42.708;23.310;2023-02-11T05:27:26;27.00;;;14.63;;
16450;SDS011;12243;42.708;23.310;2023-02-11T05:29:53;27.17;;;14.30;;
16450;SDS011;12243;42.708;23.310;2023-02-11T05:32:21;31.57;;;13.97;;
16450;SDS011;12243;42.708;23.310;2023-02-11T05:34:48;26.23;;;13.70;;
16450;SDS011;12243;42.708;23.310;2023-02-11T05:37:14;26.30;;;13.73;;
16450;SDS011;12243;42.708;23.310;2023-02-11T05:39:41;27.33;;;14.50;;
16450;SDS011;12243;42.708;23.310;2023-02-11T05:42:08;26.73;;;14.37;;
16450;SDS011;12243;42.708;23.310;2023-02-11T05:44:35;22.87;;;12.40;;
16450;SDS011;12243;42.708;23.310;2023-02-11T05:47:02;20.73;;;11.43;;
16450;SDS011;12243;42.708;23.310;2023-02-11T05:49:30;21.50;;;10.53;;
16450;SDS011;12243;42.708;23.310;2023-02-11T05:51:57;21.80;;;12.17;;
16450;SDS011;12243;42.708;23.310;2023-02-11T05:54:24;21.33;;;11.13;;
16450;SDS011;12243;42.708;23.310;2023-02-11T05:56:51;21.20;;;11.00;;
16450;SDS011;12243;42.708;23.310;2023-02-11T05:59:18;20.67;;;10.73;;
16450;SDS011;12243;42.708;23.310;2023-02-11T06:01:44;24.20;;;11.07;;
16450;SDS011;12243;42.708;23.310;2023-02-11T06:04:11;22.67;;;10.57;;
16450;SDS011;12243;42.708;23.310;2023-02-11T06:06:39;18.73;;;10.87;;
16450;SDS011;12243;42.708;23.310;2023-02-11T06:09:06;24.83;;;11.90;;
16450;SDS011;12243;42.708;23.310;2023-02-11T06:11:34;20.23;;;10.37;;
16450;SDS011;12243;42.708;23.310;2023-02-11T06:14:01;16.83;;;9.57;;
16450;SDS011;12243;42.708;23.310;2023-02-11T06:16:28;21.93;;;10.93;;
16450;SDS011;12243;42.708;23.310;2023-02-11T06:18:55;21.17;;;11.17;;
16450;SDS011;12243;42.708;23.310;2023-02-11T06:21:22;27.23;;;12.33;;
16450;SDS011;12243;42.708;23.310;2023-02-11T06:23:50;21.90;;;12.27;;
16450;SDS011;12243;42.708;23.310;2023-02-11T06:26:18;30.03;;;13.87;;
16450;SDS011;12243;42.708;23.310;2023-02-11T06:28:46;26.33;;;13.77;;
16450;SDS011;12243;42.708;23.310;2023-02-11T06:31:13;23.17;;;12.80;;
16450;SDS011;12243;42.708;23.310;2023-02-11T06:33:40;23.37;;;12.93;;
16450;SDS011;12243;42.708;23.310;2023-02-11T06:36:11;25.43;;;12.90;;
16450;SDS011;12243;42.708;23.310;2023-02-11T06:38:40;26.07;;;13.50;;
16450;SDS011;12243;42.708;23.310;2023-02-11T06:41:09;27.43;;;13.23;;
16450;SDS011;12243;42.708;23.310;2023-02-11T06:43:37;27.27;;;15.13;;
16450;SDS011;12243;42.708;23.310;2023-02-11T06:46:04;32.10;;;15.23;;
16450;SDS011;12243;42.708;23.310;2023-02-11T06:48:31;27.37;;;14.43;;
16450;SDS011;12243;42.708;23.310;2023-02-11T06:51:00;26.53;;;14.17;;
16450;SDS011;12243;42.708;23.310;2023-02-11T06:53:27;23.33;;;13.77;;
16450;SDS011;12243;42.708;23.310;2023-02-11T06:55:54;25.03;;;13.77;;
16450;SDS011;12243;42.708;23.310;2023-02-11T06:58:23;24.87;;;14.77;;
16450;SDS011;12243;42.708;23.310;2023-02-11T07:00:49;28.33;;;14.50;;
16450;SDS011;12243;42.708;23.310;2023-02-11T07:03:16;30.83;;;15.07;;
16450;SDS011;12243;42.708;23.310;2023-02-11T07:05:43;29.43;;;15.80;;
16450;SDS011;12243;42.708;23.310;2023-02-11T07:08:10;28.90;;;14.37;;
16450;SDS011;12243;42.708;23.310;2023-02-11T07:10:37;32.30;;;17.57;;
16450;SDS011;12243;42.708;23.310;2023-02-11T07:13:04;29.87;;;15.40;;
16450;SDS011;12243;42.708;23.310;2023-02-11T07:15:32;34.50;;;17.57;;
16450;SDS011;12243;42.708;23.310;2023-02-11T07:17:59;33.30;;;17.50;;
16450;SDS011;12243;42.708;23.310;2023-02-11T07:20:26;27.47;;;13.90;;
16450;SDS011;12243;42.708;23.310;2023-02-11T07:22:52;34.53;;;16.70;;
16450;SDS011;12243;42.708;23.310;2023-02-11T07:25:19;28.00;;;15.53;;
16450;SDS011;12243;42.708;23.310;2023-02-11T07:27:46;34.33;;;18.97;;
16450;SDS011;12243;42.708;23.310;2023-02-11T07:30:14;34.97;;;18.13;;
16450;SDS011;12243;42.708;23.310;2023-02-11T07:32:42;35.00;;;21.27;;
16450;SDS011;12243;42.708;23.310;2023-02-11T07:35:09;37.80;;;18.23;;
16450;SDS011;12243;42.708;23.310;2023-02-11T07:37:39;35.57;;;19.43;;
16450;SDS011;12243;42.708;23.310;2023-02-11T07:40:07;37.80;;;19.00;;
16450;SDS011;12243;42.708;23.310;2023-02-11T07:42:34;35.03;;;19.03;;
16450;SDS011;12243;42.708;23.310;2023-02-11T07:45:01;36.50;;;19.03;;
16450;SDS011;12243;42.708;23.310;2023-02-11T07:47:28;32.23;;;17.97;;
16450;SDS011;12243;42.708;23.310;2023-02-11T07:49:56;24.67;;;13.93;;
16450;SDS011;12243;42.708;23.310;2023-02-11T07:52:23;30.53;;;17.27;;
16450;SDS011;12243;42.708;23.310;2023-02-11T07:54:50;37.13;;;16.07;;
16450;SDS011;12243;42.708;23.310;2023-02-11T07:57:16;28.60;;;13.60;;
16450;SDS011;12243;42.708;23.310;2023-02-11T07:59:43;35.10;;;17.90;;
16450;SDS011;12243;42.708;23.310;2023-02-11T08:02:10;31.27;;;14.97;;
16450;SDS011;12243;42.708;23.310;2023-02-11T08:04:37;36.17;;;19.90;;
16450;SDS011;12243;42.708;23.310;2023-02-11T08:07:05;45.90;;;19.90;;
16450;SDS011;12243;42.708;23.310;2023-02-11T08:09:32;31.77;;;17.93;;
16450;SDS011;12243;42.708;23.310;2023-02-11T08:11:59;33.57;;;17.87;;
16450;SDS011;12243;42.708;23.310;2023-02-11T08:14:26;30.30;;;17.20;;
16450;SDS011;12243;42.708;23.310;2023-02-11T08:16:53;38.10;;;19.20;;
16450;SDS011;12243;42.708;23.310;2023-02-11T08:19:19;29.73;;;15.60;;
16450;SDS011;12243;42.708;23.310;2023-02-11T08:21:46;35.23;;;17.93;;
16450;SDS011;12243;42.708;23.310;2023-02-11T08:24:14;36.57;;;17.87;;
16450;SDS011;12243;42.708;23.310;2023-02-11T08:26:42;28.27;;;17.03;;
16450;SDS011;12243;42.708;23.310;2023-02-11T08:29:09;25.50;;;14.83;;
16450;SDS011;12243;42.708;23.310;2023-02-11T08:31:39;28.03;;;16.97;;
16450;SDS011;12243;42.708;23.310;2023-02-11T08:34:08;30.97;;;16.47;;
16450;SDS011;12243;42.708;23.310;2023-02-11T08:36:36;29.07;;;15.17;;
16450;SDS011;12243;42.708;23.310;2023-02-11T08:39:05;21.23;;;11.67;;
16450;SDS011;12243;42.708;23.310;2023-02-11T08:41:34;29.90;;;15.93;;
16450;SDS011;12243;42.708;23.310;2023-02-11T08:44:01;35.97;;;19.00;;
16450;SDS011;12243;42.708;23.310;2023-02-11T08:46:28;24.37;;;13.77;;
16450;SDS011;12243;42.708;23.310;2023-02-11T08:48:55;28.97;;;16.87;;
16450;SDS011;12243;42.708;23.310;2023-02-11T08:51:23;26.97;;;15.60;;
16450;SDS011;12243;42.708;23.310;2023-02-11T08:53:52;30.70;;;16.13;;
16450;SDS011;12243;42.708;23.310;2023-02-11T08:56:19;26.17;;;15.97;;
16450;SDS011;12243;42.708;23.310;2023-02-11T08:58:50;29.33;;;15.83;;
16450;SDS011;12243;42.708;23.310;2023-02-11T09:01:19;30.40;;;17.27;;
16450;SDS011;12243;42.708;23.310;2023-02-11T09:03:47;25.33;;;15.33;;
16450;SDS011;12243;42.708;23.310;2023-02-11T09:06:14;29.57;;;16.20;;
16450;SDS011;12243;42.708;23.310;2023-02-11T09:08:44;26.33;;;15.03;;
16450;SDS011;12243;42.708;23.310;2023-02-11T09:11:13;33.70;;;15.63;;
16450;SDS011;12243;42.708;23.310;2023-02-11T09:13:41;28.37;;;17.50;;
16450;SDS011;12243;42.708;23.310;2023-02-11T09:16:14;27.87;;;15.93;;
16450;SDS011;12243;42.708;23.310;2023-02-11T09:18:44;24.10;;;14.13;;
16450;SDS011;12243;42.708;23.310;2023-02-11T09:21:11;26.83;;;14.70;;
16450;SDS011;12243;42.708;23.310;2023-02-11T09:23:38;25.60;;;16.03;;
16450;SDS011;12243;42.708;23.310;2023-02-11T09:26:08;29.33;;;16.77;;
16450;SDS011;12243;42.708;23.310;2023-02-11T09:28:38;26.03;;;14.57;;
16450;SDS011;12243;42.708;23.310;2023-02-11T09:31:05;23.60;;;15.13;;
16450;SDS011;12243;42.708;23.310;2023-02-11T09:33:34;24.57;;;15.23;;
16450;SDS011;12243;42.708;23.310;2023-02-11T09:36:01;24.37;;;14.27;;
16450;SDS011;12243;42.708;23.310;2023-02-11T09:38:29;24.33;;;13.23;;
16450;SDS011;12243;42.708;23.310;2023-02-11T09:40:56;30.90;;;14.30;;
16450;SDS011;12243;42.708;23.310;2023-02-11T09:43:25;33.73;;;17.20;;
16450;SDS011;12243;42.708;23.310;2023-02-11T09:45:56;20.73;;;13.03;;
16450;SDS011;12243;42.708;23.310;2023-02-11T09:48:24;29.20;;;15.30;;
16450;SDS011;12243;42.708;23.310;2023-02-11T09:50:53;25.33;;;13.73;;
16450;SDS011;12243;42.708;23.310;2023-02-11T09:53:23;23.93;;;14.83;;
16450;SDS011;12243;42.708;23.310;2023-02-11T09:55:51;24.27;;;13.73;;
16450;SDS011;12243;42.708;23.310;2023-02-11T09:58:23;20.30;;;11.97;;
16450;SDS011;12243;42.708;23.310;2023-02-11T10:00:54;22.03;;;11.67;;
16450;SDS011;12243;42.708;23.310;2023-02-11T10:03:46;23.87;;;13.60;;
16450;SDS011;12243;42.708;23.310;2023-02-11T10:09:16;24.20;;;14.37;;
16450;SDS011;12243;42.708;23.310;2023-02-11T10:11:54;22.63;;;12.13;;
16450;SDS011;12243;42.708;23.310;2023-02-11T10:14:35;20.40;;;11.97;;
16450;SDS011;12243;42.708;23.310;2023-02-11T10:17:20;22.27;;;11.73;;
16450;SDS011;12243;42.708;23.310;2023-02-11T10:20:03;17.13;;;11.60;;
16450;SDS011;12243;42.708;23.310;2023-02-11T10:22:43;18.80;;;11.33;;
16450;SDS011;12243;42.708;23.310;2023-02-11T10:25:16;20.97;;;13.23;;
16450;SDS011;12243;42.708;23.310;2023-02-11T10:27:47;14.47;;;9.40;;
16450;SDS011;12243;42.708;23.310;2023-02-11T10:30:18;16.27;;;10.23;;
16450;SDS011;12243;42.708;23.310;2023-02-11T10:32:50;20.70;;;11.47;;
16450;SDS011;12243;42.708;23.310;2023-02-11T10:35:22;19.97;;;11.10;;
16450;SDS011;12243;42.708;23.310;2023-02-11T10:37:52;19.30;;;11.37;;
16450;SDS011;12243;42.708;23.310;2023-02-11T10:40:20;23.87;;;12.57;;
16450;SDS011;12243;42.708;23.310;2023-02-11T10:42:49;21.33;;;12.40;;
16450;SDS011;12243;42.708;23.310;2023-02-11T10:45:20;19.53;;;9.90;;
16450;SDS011;12243;42.708;23.310;2023-02-11T10:47:51;18.47;;;12.00;;
16450;SDS011;12243;42.708;23.310;2023-02-11T10:50:21;26.90;;;15.60;;
16450;SDS011;12243;42.708;23.310;2023-02-11T10:52:49;21.10;;;11.97;;
16450;SDS011;12243;42.708;23.310;2023-02-11T10:55:18;22.73;;;12.70;;
16450;SDS011;12243;42.708;23.310;2023-02-11T10:57:51;19.57;;;10.83;;
16450;SDS011;12243;42.708;23.310;2023-02-11T11:03:14;18.50;;;10.30;;
16450;SDS011;12243;42.708;23.310;2023-02-11T11:05:45;22.53;;;12.77;;
16450;SDS011;12243;42.708;23.310;2023-02-11T11:08:13;19.37;;;11.17;;
16450;SDS011;12243;42.708;23.310;2023-02-11T11:10:44;18.07;;;11.13;;
16450;SDS011;12243;42.708;23.310;2023-02-11T11:13:22;24.07;;;13.17;;
16450;SDS011;12243;42.708;23.310;2023-02-11T11:16:05;19.60;;;12.07;;
16450;SDS011;12243;42.708;23.310;2023-02-11T11:18:43;23.63;;;11.63;;
16450;SDS011;12243;42.708;23.310;2023-02-11T11:21:12;16.80;;;8.63;;
16450;SDS011;12243;42.708;23.310;2023-02-11T11:23:46;14.10;;;9.47;;
16450;SDS011;12243;42.708;23.310;2023-02-11T11:26:17;13.37;;;9.37;;
16450;SDS011;12243;42.708;23.310;2023-02-11T11:28:50;13.10;;;8.83;;
16450;SDS011;12243;42.708;23.310;2023-02-11T11:31:22;18.10;;;8.33;;
16450;SDS011;12243;42.708;23.310;2023-02-11T11:33:53;16.93;;;9.03;;
16450;SDS011;12243;42.708;23.310;2023-02-11T11:36:24;15.40;;;9.43;;
16450;SDS011;12243;42.708;23.310;2023-02-11T11:38:59;14.63;;;9.00;;
16450;SDS011;12243;42.708;23.310;2023-02-11T11:41:30;17.60;;;10.57;;
16450;SDS011;12243;42.708;23.310;2023-02-11T11:44:03;14.97;;;8.73;;
16450;SDS011;12243;42.708;23.310;2023-02-11T11:46:43;13.83;;;8.67;;
16450;SDS011;12243;42.708;23.310;2023-02-11T11:49:13;19.37;;;12.03;;
16450;SDS011;12243;42.708;23.310;2023-02-11T11:51:50;12.83;;;8.47;;
16450;SDS011;12243;42.708;23.310;2023-02-11T11:54:23;14.37;;;10.17;;
16450;SDS011;12243;42.708;23.310;2023-02-11T11:56:55;14.80;;;10.13;;
16450;SDS011;12243;42.708;23.310;2023-02-11T11:59:26;12.20;;;8.53;;
16450;SDS011;12243;42.708;23.310;2023-02-11T12:01:58;15.40;;;8.93;;
16450;SDS011;12243;42.708;23.310;2023-02-11T12:04:53;9.53;;;7.23;;
16450;SDS011;12243;42.708;23.310;2023-02-11T12:07:34;12.33;;;8.47;;
16450;SDS011;12243;42.708;23.310;2023-02-11T12:10:23;12.60;;;8.53;;
16450;SDS011;12243;42.708;23.310;2023-02-11T12:13:01;12.87;;;8.10;;
16450;SDS011;12243;42.708;23.310;2023-02-11T12:15:42;15.40;;;8.87;;
16450;SDS011;12243;42.708;23.310;2023-02-11T12:18:19;13.93;;;8.97;;
16450;SDS011;12243;42.708;23.310;2023-02-11T12:21:15;30.23;;;16.17;;
16450;SDS011;12243;42.708;23.310;2023-02-11T12:23:57;56.87;;;24.00;;
16450;SDS011;12243;42.708;23.310;2023-02-11T12:26:34;11.27;;;8.47;;
16450;SDS011;12243;42.708;23.310;2023-02-11T12:29:14;13.77;;;8.90;;
16450;SDS011;12243;42.708;23.310;2023-02-11T12:31:55;86.77;;;35.00;;
16450;SDS011;12243;42.708;23.310;2023-02-11T12:37:41;14.73;;;10.40;;
16450;SDS011;12243;42.708;23.310;2023-02-11T12:40:35;14.90;;;9.13;;
16450;SDS011;12243;42.708;23.310;2023-02-11T12:43:13;12.90;;;8.33;;
16450;SDS011;12243;42.708;23.310;2023-02-11T12:45:52;16.53;;;8.53;;
16450;SDS011;12243;42.708;23.310;2023-02-11T12:48:33;12.77;;;9.40;;
16450;SDS011;12243;42.708;23.310;2023-02-11T12:51:11;11.97;;;9.03;;
16450;SDS011;12243;42.708;23.310;2023-02-11T12:53:53;17.13;;;10.57;;
16450;SDS011;12243;42.708;23.310;2023-02-11T12:56:38;14.40;;;8.60;;
16450;SDS011;12243;42.708;23.310;2023-02-11T12:59:12;15.67;;;9.83;;
16450;SDS011;12243;42.708;23.310;2023-02-11T13:01:45;16.57;;;10.20;;
16450;SDS011;12243;42.708;23.310;2023-02-11T13:04:16;15.57;;;10.07;;
16450;SDS011;12243;42.708;23.310;2023-02-11T13:06:52;11.47;;;8.47;;
16450;SDS011;12243;42.708;23.310;2023-02-11T13:09:23;16.20;;;8.60;;
16450;SDS011;12243;42.708;23.310;2023-02-11T13:11:56;14.10;;;10.33;;
16450;SDS011;12243;42.708;23.310;2023-02-11T13:14:47;16.43;;;10.50;;
16450;SDS011;12243;42.708;23.310;2023-02-11T13:17:20;13.03;;;9.23;;
16450;SDS011;12243;42.708;23.310;2023-02-11T13:19:53;14.43;;;9.37;;
16450;SDS011;12243;42.708;23.310;2023-02-11T13:22:29;12.80;;;8.93;;
16450;SDS011;12243;42.708;23.310;2023-02-11T13:25:03;16.43;;;10.83;;
16450;SDS011;12243;42.708;23.310;2023-02-11T13:27:35;11.03;;;8.33;;
16450;SDS011;12243;42.708;23.310;2023-02-11T13:30:17;9.20;;;6.73;;
16450;SDS011;12243;42.708;23.310;2023-02-11T13:33:04;10.63;;;7.50;;
16450;SDS011;12243;42.708;23.310;2023-02-11T13:35:48;12.10;;;8.40;;
16450;SDS011;12243;42.708;23.310;2023-02-11T13:38:35;10.30;;;7.47;;
16450;SDS011;12243;42.708;23.310;2023-02-11T13:41:04;13.53;;;8.70;;
16450;SDS011;12243;42.708;23.310;2023-02-11T13:43:40;11.27;;;7.83;;
16450;SDS011;12243;42.708;23.310;2023-02-11T13:46:09;15.23;;;9.20;;
16450;SDS011;12243;42.708;23.310;2023-02-11T13:48:44;13.87;;;9.60;;
16450;SDS011;12243;42.708;23.310;2023-02-11T13:51:13;10.97;;;7.73;;
16450;SDS011;12243;42.708;23.310;2023-02-11T13:53:43;11.33;;;6.97;;
16450;SDS011;12243;42.708;23.310;2023-02-11T13:56:22;12.57;;;7.93;;
16450;SDS011;12243;42.708;23.310;2023-02-11T13:58:55;12.13;;;8.43;;
16450;SDS011;12243;42.708;23.310;2023-02-11T14:01:39;10.83;;;7.53;;
16450;SDS011;12243;42.708;23.310;2023-02-11T14:04:20;9.70;;;6.93;;
16450;SDS011;12243;42.708;23.310;2023-02-11T14:07:25;17.07;;;10.20;;
16450;SDS011;12243;42.708;23.310;2023-02-11T14:13:17;11.97;;;7.87;;
16450;SDS011;12243;42.708;23.310;2023-02-11T14:15:48;12.90;;;8.33;;
16450;SDS011;12243;42.708;23.310;2023-02-11T14:18:36;13.57;;;8.77;;
16450;SDS011;12243;42.708;23.310;2023-02-11T14:21:11;11.73;;;8.33;;
16450;SDS011;12243;42.708;23.310;2023-02-11T14:23:39;12.60;;;8.50;;
16450;SDS011;12243;42.708;23.310;2023-02-11T14:26:24;11.37;;;7.70;;
16450;SDS011;12243;42.708;23.310;2023-02-11T14:29:00;11.70;;;7.53;;
16450;SDS011;12243;42.708;23.310;2023-02-11T14:31:36;13.43;;;8.30;;
16450;SDS011;12243;42.708;23.310;2023-02-11T14:34:18;10.40;;;7.47;;
16450;SDS011;12243;42.708;23.310;2023-02-11T14:37:08;21.60;;;13.33;;
16450;SDS011;12243;42.708;23.310;2023-02-11T14:39:53;13.17;;;8.57;;
16450;SDS011;12243;42.708;23.310;2023-02-11T14:42:26;10.87;;;7.70;;
16450;SDS011;12243;42.708;23.310;2023-02-11T14:44:55;41.07;;;19.60;;
16450;SDS011;12243;42.708;23.310;2023-02-11T14:47:29;11.60;;;7.90;;
16450;SDS011;12243;42.708;23.310;2023-02-11T14:50:02;14.30;;;8.30;;